Time;durP1;ratioP1;P1;durP2;ratioP2;P2;SDS_P1;SDS_P2;PMS_P1;PMS_P2;Temp;Humidity;BMP_temperature;BMP_pressure;BME280_temperature;BME280_humidity;BME280_pressure;Samples;Min_cycle;Max_cycle;Signal;HPM_P1;HPM_P2
2022/07/04 00:00:33;;;;;;;24.40;17.50;;;;;;;23.07;69.55;101072.21;106607;1257;59631;-72
2022/07/04 00:03:05;;;;;;;24.90;17.30;;;;;;;23.05;70.47;101071.38;106506;1257;61713;-71
2022/07/04 00:05:34;;;;;;;25.70;18.10;;;;;;;23.04;70.26;101072.22;106610;1256;73772;-69
2022/07/04 00:08:03;;;;;;;23.40;17.00;;;;;;;23.00;70.35;101074.59;106511;1257;71902;-70
2022/07/04 00:10:32;;;;;;;24.30;17.80;;;;;;;22.96;69.60;101074.15;106619;1256;60564;-69
2022/07/04 00:13:01;;;;;;;21.70;16.40;;;;;;;22.86;68.58;101073.79;106445;1257;73236;-70
2022/07/04 00:15:29;;;;;;;24.50;17.20;;;;;;;22.73;70.63;101075.13;106289;1256;63376;-71
2022/07/04 00:17:58;;;;;;;24.40;17.10;;;;;;;22.66;70.80;101075.02;106452;1258;59657;-70
2022/07/04 00:20:27;;;;;;;23.80;17.70;;;;;;;22.62;70.34;101074.46;106646;1256;74450;-70
2022/07/04 00:22:55;;;;;;;23.30;17.30;;;;;;;22.57;72.14;101074.48;106606;1256;71853;-71
2022/07/04 00:25:24;;;;;;;26.20;17.60;;;;;;;22.55;71.12;101075.27;106486;1259;59181;-71
2022/07/04 00:27:53;;;;;;;24.90;17.20;;;;;;;22.44;71.19;101074.98;106590;1256;63345;-71
2022/07/04 00:30:22;;;;;;;23.10;17.40;;;;;;;22.32;70.94;101073.16;106435;1257;59645;-72
2022/07/04 00:32:51;;;;;;;25.60;17.90;;;;;;;22.24;72.73;101071.09;106604;1256;59532;-70
2022/07/04 00:35:20;;;;;;;24.70;17.50;;;;;;;22.22;73.49;101068.52;106467;1257;75426;-70
2022/07/04 00:37:49;;;;;;;25.70;18.00;;;;;;;22.23;73.38;101060.61;106557;1257;60814;-70
2022/07/04 00:40:18;;;;;;;26.50;18.30;;;;;;;22.27;73.26;101059.77;106573;1256;70724;-71
2022/07/04 00:42:46;;;;;;;23.70;16.60;;;;;;;22.31;73.07;101063.16;106632;1256;74657;-70
2022/07/04 00:45:15;;;;;;;24.10;17.20;;;;;;;22.34;72.45;101065.86;106639;1256;58249;-73
2022/07/04 00:47:44;;;;;;;24.60;17.70;;;;;;;22.31;71.83;101063.04;106426;1257;61360;-70
2022/07/04 00:50:12;;;;;;;25.60;17.50;;;;;;;22.19;72.78;101063.12;106491;1257;74310;-71
2022/07/04 00:52:41;;;;;;;26.80;17.70;;;;;;;22.09;73.61;101067.17;106689;1256;61519;-72
2022/07/04 00:55:10;;;;;;;24.50;17.60;;;;;;;22.05;73.61;101070.60;106616;1256;70232;-76
2022/07/04 00:57:39;;;;;;;28.50;17.20;;;;;;;22.06;73.48;101072.27;106627;1255;73784;-71
2022/07/04 01:00:08;;;;;;;23.30;18.00;;;;;;;22.07;74.02;101068.08;106658;1256;61869;-70
2022/07/04 01:02:37;;;;;;;27.10;17.30;;;;;;;22.10;73.86;101069.40;106623;1256;60712;-72
2022/07/04 01:05:06;;;;;;;29.50;18.30;;;;;;;22.08;73.78;101064.05;106530;1258;74954;-71
2022/07/04 01:07:36;;;;;;;23.50;17.70;;;;;;;22.05;74.00;101067.58;106645;1260;73171;-71
2022/07/04 01:10:06;;;;;;;23.40;17.40;;;;;;;22.03;73.57;101070.66;106371;1259;71384;-73
2022/07/04 01:12:35;;;;;;;27.70;17.70;;;;;;;22.01;73.91;101074.00;106417;1258;61135;-72
2022/07/04 01:15:06;;;;;;;27.90;19.00;;;;;;;22.07;72.99;101077.29;106260;1260;61419;-69
2022/07/04 01:17:36;;;;;;;26.50;18.60;;;;;;;22.05;73.13;101074.90;106361;1258;59612;-75
2022/07/04 01:20:09;;;;;;;30.40;20.30;;;;;;;22.01;73.28;101072.52;106380;1259;65653;-69
2022/07/04 01:22:39;;;;;;;26.10;18.60;;;;;;;21.97;73.78;101065.16;106350;1259;62460;-70
2022/07/04 01:25:10;;;;;;;24.70;17.60;;;;;;;22.02;73.96;101067.85;106210;1260;69876;-72
2022/07/04 01:27:40;;;;;;;24.00;17.80;;;;;;;22.07;73.67;101066.38;106479;1258;73822;-72
2022/07/04 01:30:10;;;;;;;26.70;18.90;;;;;;;22.10;73.52;101062.77;106477;1259;61893;-74
2022/07/04 01:32:39;;;;;;;26.70;17.50;;;;;;;22.15;73.42;101064.23;106437;1260;59579;-77
2022/07/04 01:35:10;;;;;;;28.30;18.80;;;;;;;22.18;72.78;101067.56;106478;1258;72216;-74
2022/07/04 01:37:38;;;;;;;27.00;18.10;;;;;;;22.17;73.02;101064.61;106377;1260;73158;-72
2022/07/04 01:40:08;;;;;;;26.80;17.80;;;;;;;22.10;73.75;101062.09;106319;1260;70446;-69
2022/07/04 01:42:38;;;;;;;24.40;18.50;;;;;;;22.05;73.92;101058.08;106494;1258;63718;-70
2022/07/04 01:45:09;;;;;;;25.70;18.30;;;;;;;21.99;74.09;101056.27;106401;1258;60046;-68
2022/07/04 01:47:38;;;;;;;27.40;18.40;;;;;;;21.92;74.34;101047.75;106275;1258;61830;-69
2022/07/04 01:50:12;;;;;;;26.30;18.00;;;;;;;21.92;74.48;101054.50;106239;1260;63740;-70
2022/07/04 01:52:41;;;;;;;28.00;18.80;;;;;;;21.91;73.87;101055.18;106258;1259;71717;-71
2022/07/04 01:55:11;;;;;;;27.40;18.30;;;;;;;21.88;73.74;101059.49;106321;1259;61417;-71
2022/07/04 01:57:40;;;;;;;32.40;18.30;;;;;;;21.81;73.24;101055.64;106090;1260;63400;-71
2022/07/04 02:02:58;;;;;;;30.10;18.30;;;;;;;21.61;73.91;101059.95;106211;1258;60553;-70
2022/07/04 02:05:27;;;;;;;26.10;17.60;;;;;;;21.53;74.84;101061.00;106360;1258;63514;-71
2022/07/04 02:07:55;;;;;;;30.20;18.10;;;;;;;21.49;75.89;101060.73;106379;1256;71627;-71
2022/07/04 02:10:24;;;;;;;25.80;18.30;;;;;;;21.46;76.27;101057.61;106258;1257;59943;-71
2022/07/04 02:13:02;;;;;;;27.90;18.70;;;;;;;21.49;76.37;101063.73;106574;1256;62667;-71
2022/07/04 02:15:40;;;;;;;29.90;17.90;;;;;;;21.54;76.22;101068.52;106482;1257;61711;-71
2022/07/04 02:18:11;;;;;;;27.00;17.70;;;;;;;21.55;75.95;101074.91;106411;1257;58295;-71
2022/07/04 02:20:40;;;;;;;29.10;17.50;;;;;;;21.52;76.01;101077.95;106425;1257;63086;-72
2022/07/04 02:23:09;;;;;;;27.70;18.40;;;;;;;21.44;76.40;101083.98;106600;1256;71795;-72
2022/07/04 02:25:38;;;;;;;26.20;18.20;;;;;;;21.34;76.74;101086.35;106646;1256;71103;-71
2022/07/04 02:28:06;;;;;;;29.00;17.90;;;;;;;21.39;75.35;101086.70;106598;1255;75086;-71
2022/07/04 02:30:35;;;;;;;24.20;17.50;;;;;;;21.41;75.12;101086.26;106759;1256;58947;-71
2022/07/04 02:33:04;;;;;;;27.90;18.90;;;;;;;21.40;75.34;101084.42;106526;1257;60423;-70
2022/07/04 02:35:32;;;;;;;25.40;19.20;;;;;;;21.41;76.42;101085.19;106603;1258;74963;-71
2022/07/04 02:38:01;;;;;;;25.30;17.90;;;;;;;21.45;76.53;101086.00;106659;1255;62448;-70
2022/07/04 02:40:30;;;;;;;27.30;18.50;;;;;;;21.53;76.73;101085.60;106680;1255;69760;-71
2022/07/04 02:42:58;;;;;;;28.80;19.30;;;;;;;21.58;76.46;101085.09;106354;1257;63749;-75
2022/07/04 02:45:27;;;;;;;26.60;18.40;;;;;;;21.64;76.16;101085.55;106608;1255;59635;-74
2022/07/04 02:47:56;;;;;;;30.80;20.80;;;;;;;21.76;75.34;101083.02;106581;1255;60447;-69
2022/07/04 02:50:24;;;;;;;31.40;18.70;;;;;;;21.81;74.74;101080.11;106800;1255;74363;-71
2022/07/04 02:52:53;;;;;;;30.90;19.20;;;;;;;21.80;74.62;101088.18;106756;1255;71476;-72
2022/07/04 02:55:22;;;;;;;28.20;19.80;;;;;;;21.78;74.58;101086.86;106747;1255;71644;-73
2022/07/04 02:57:51;;;;;;;31.70;21.00;;;;;;;21.78;75.28;101090.30;106760;1256;73674;-74
2022/07/04 03:00:19;;;;;;;27.00;19.30;;;;;;;21.87;74.66;101090.13;106779;1256;59645;-72
2022/07/04 03:02:48;;;;;;;29.30;18.60;;;;;;;21.98;74.04;101086.72;106778;1256;59628;-71
2022/07/04 03:05:17;;;;;;;30.90;21.10;;;;;;;21.98;74.02;101085.83;106499;1257;73623;-71
2022/07/04 03:07:46;;;;;;;30.30;20.50;;;;;;;21.93;74.13;101085.63;106396;1255;72992;-71
2022/07/04 03:10:15;;;;;;;34.50;21.00;;;;;;;21.93;74.21;101097.55;106502;1257;70046;-71
2022/07/04 03:12:44;;;;;;;32.80;20.50;;;;;;;21.90;74.53;101100.46;106563;1257;65327;-70
2022/07/04 03:15:12;;;;;;;34.40;21.30;;;;;;;22.03;73.92;101096.92;106678;1255;60498;-72
2022/07/04 03:17:41;;;;;;;30.10;20.00;;;;;;;22.06;73.94;101092.55;106673;1255;59586;-72
2022/07/04 03:20:10;;;;;;;30.30;21.00;;;;;;;22.07;73.98;101090.49;106464;1257;73877;-71
2022/07/04 03:22:39;;;;;;;30.10;20.00;;;;;;;22.08;73.71;101091.80;106518;1257;62232;-70
2022/07/04 03:25:08;;;;;;;31.20;21.00;;;;;;;22.15;73.27;101100.17;106738;1255;68835;-70
2022/07/04 03:27:37;;;;;;;29.90;20.80;;;;;;;22.20;73.84;101098.58;106673;1256;73554;-69
2022/07/04 03:30:06;;;;;;;32.60;22.00;;;;;;;22.25;73.54;101097.80;106662;1256;59570;-71
2022/07/04 03:32:35;;;;;;;32.30;22.30;;;;;;;22.32;73.12;101101.11;106708;1255;58976;-82
2022/07/04 03:35:05;;;;;;;36.70;22.40;;;;;;;22.37;73.29;101107.39;106749;1255;74617;-84
2022/07/04 03:37:33;;;;;;;30.20;20.00;;;;;;;22.46;72.97;101105.95;106596;1256;72295;-84
2022/07/04 03:40:03;;;;;;;46.70;27.50;;;;;;;22.50;72.88;101104.13;106764;1256;60852;-82
2022/07/04 03:42:32;;;;;;;33.00;21.00;;;;;;;22.55;72.82;101109.21;106712;1256;73302;-79
2022/07/04 03:45:00;;;;;;;33.80;20.80;;;;;;;22.63;72.50;101107.70;106635;1256;61026;-78
2022/07/04 03:47:29;;;;;;;34.10;22.10;;;;;;;22.71;72.16;101111.23;106810;1254;60323;-79
2022/07/04 03:49:58;;;;;;;37.60;23.10;;;;;;;22.77;71.87;101110.68;106755;1256;74491;-81
2022/07/04 03:52:27;;;;;;;37.00;21.10;;;;;;;22.83;71.75;101110.15;106752;1258;62097;-79
2022/07/04 03:54:56;;;;;;;34.40;19.90;;;;;;;22.90;71.60;101113.60;106905;1255;59243;-75
2022/07/04 03:57:25;;;;;;;30.50;20.40;;;;;;;22.99;71.30;101116.59;106952;1255;64217;-75
2022/07/04 03:59:54;;;;;;;29.90;19.20;;;;;;;23.08;71.06;101120.56;106927;1252;58322;-75
2022/07/04 04:02:23;;;;;;;29.30;20.40;;;;;;;23.13;70.76;101121.73;107002;1253;60609;-77
2022/07/04 04:08:16;;;;;;;30.40;20.20;;;;;;;23.28;69.92;101118.14;106592;1260;73903;-81
2022/07/04 04:10:45;;;;;;;31.20;20.20;;;;;;;23.34;69.95;101115.79;107079;1252;60819;-76
2022/07/04 04:13:14;;;;;;;28.50;19.50;;;;;;;23.36;69.93;101114.71;107054;1252;71461;-77
2022/07/04 04:15:43;;;;;;;28.40;19.40;;;;;;;23.42;70.08;101117.34;107157;1252;58967;-80
2022/07/04 04:18:12;;;;;;;28.20;19.20;;;;;;;23.52;69.46;101117.55;107130;1252;59759;-82
2022/07/04 04:20:41;;;;;;;27.00;19.50;;;;;;;23.59;69.07;101114.90;106933;1255;63058;-82
2022/07/04 04:23:10;;;;;;;25.40;19.00;;;;;;;23.57;69.06;101107.86;107079;1252;71527;-78
2022/07/04 04:25:38;;;;;;;31.50;18.70;;;;;;;23.66;68.63;101108.08;107278;1252;70333;-91
2022/07/04 04:28:09;;;;;;;26.70;18.70;;;;;;;23.65;68.78;101108.31;108254;1252;63344;-91
2022/07/04 04:30:38;;;;;;;28.70;19.60;;;;;;;23.64;69.13;101102.27;107820;1252;62308;-85
2022/07/04 04:33:06;;;;;;;28.90;19.30;;;;;;;23.68;69.00;101106.92;106803;1252;60862;-80
2022/07/04 04:35:35;;;;;;;28.00;18.50;;;;;;;23.77;68.58;101110.63;107233;1252;63792;-82
2022/07/04 04:38:04;;;;;;;32.00;20.40;;;;;;;23.79;68.57;101108.70;107161;1252;69675;-88
2022/07/04 04:40:33;;;;;;;27.30;19.00;;;;;;;23.92;68.41;101114.36;107142;1252;70483;-84
2022/07/04 04:43:02;;;;;;;29.80;18.70;;;;;;;24.04;67.79;101115.24;106973;1253;62951;-89
2022/07/04 04:45:31;;;;;;;25.40;18.10;;;;;;;24.06;67.95;101116.95;106811;1256;59098;-87
2022/07/04 04:48:00;;;;;;;24.40;17.40;;;;;;;24.22;67.48;101116.29;107022;1252;60564;-88
2022/07/04 04:50:29;;;;;;;29.90;19.60;;;;;;;24.25;67.36;101117.51;107087;1253;74386;-87
2022/07/04 04:52:57;;;;;;;28.30;18.80;;;;;;;24.28;67.13;101111.02;107176;1254;63162;-85
2022/07/04 04:55:26;;;;;;;27.40;17.50;;;;;;;24.33;67.10;101109.66;106944;1254;59667;-83
2022/07/04 04:57:55;;;;;;;27.20;19.20;;;;;;;24.44;66.45;101108.58;107157;1252;73225;-87
2022/07/04 05:00:24;;;;;;;28.70;19.50;;;;;;;24.44;66.47;101114.39;107209;1252;61958;-86
2022/07/04 05:02:52;;;;;;;26.10;18.50;;;;;;;24.49;66.27;101111.63;107246;1252;60883;-83
2022/07/04 05:05:21;;;;;;;28.80;18.70;;;;;;;24.59;65.99;101109.73;107131;1254;63850;-85
2022/07/04 05:07:50;;;;;;;26.20;18.30;;;;;;;24.69;65.88;101108.30;106754;1252;555999;-88
2022/07/04 05:10:19;;;;;;;30.30;19.20;;;;;;;24.81;65.90;101110.86;107353;1255;70391;-89
2022/07/04 05:12:48;;;;;;;26.10;18.10;;;;;;;24.86;65.48;101107.89;107578;1255;73799;-76
2022/07/04 05:15:17;;;;;;;30.00;19.40;;;;;;;24.91;65.35;101108.48;106756;1254;60402;-82
2022/07/04 05:17:46;;;;;;;26.50;17.80;;;;;;;24.98;65.22;101111.31;106869;1254;62680;-74
2022/07/04 05:20:14;;;;;;;25.50;17.80;;;;;;;25.06;64.32;101108.19;106647;1254;63925;-77
2022/07/04 05:22:43;;;;;;;28.10;18.90;;;;;;;25.10;64.02;101105.05;106629;1254;60920;-76
2022/07/04 05:25:12;;;;;;;25.40;17.60;;;;;;;25.07;63.91;101108.79;106845;1254;70628;-78
2022/07/04 05:27:41;;;;;;;26.80;18.70;;;;;;;25.12;63.89;101108.30;106792;1254;74399;-78
2022/07/04 05:30:12;;;;;;;24.30;16.90;;;;;;;25.24;63.64;101109.42;106702;1254;59674;-78
2022/07/04 05:32:41;;;;;;;27.70;17.90;;;;;;;25.37;63.05;101108.06;106697;1254;61426;-77
2022/07/04 05:35:09;;;;;;;27.70;17.90;;;;;;;25.45;62.71;101106.42;106763;1255;74266;-80
2022/07/04 05:37:38;;;;;;;28.80;18.90;;;;;;;25.55;62.66;101106.98;106743;1255;63037;-80
2022/07/04 05:40:08;;;;;;;23.80;18.30;;;;;;;25.66;62.42;101109.22;106621;1257;60107;-83
2022/07/04 05:42:37;;;;;;;26.00;18.20;;;;;;;25.76;62.14;101108.70;106818;1256;63222;-81
2022/07/04 05:45:07;;;;;;;32.30;18.30;;;;;;;25.93;61.75;101106.90;106753;1255;58444;-82
2022/07/04 05:47:36;;;;;;;22.70;16.90;;;;;;;26.12;61.26;101106.48;106807;1254;61381;-85
2022/07/04 05:50:06;;;;;;;28.00;18.60;;;;;;;26.21;60.77;101106.25;107827;1254;64330;-82
2022/07/04 05:52:35;;;;;;;23.70;17.70;;;;;;;26.34;60.57;101109.20;107103;1254;63518;-83
2022/07/04 05:55:04;;;;;;;25.30;16.80;;;;;;;26.54;59.76;101106.63;106835;1255;69583;-82
2022/07/04 05:57:34;;;;;;;26.10;17.60;;;;;;;26.71;59.00;101105.27;106740;1254;72000;-83
2022/07/04 06:00:05;;;;;;;26.70;17.10;;;;;;;26.95;59.11;101104.25;108600;1254;61872;-84
2022/07/04 06:02:33;;;;;;;26.70;16.90;;;;;;;27.10;58.29;101100.78;106985;1254;61739;-82
2022/07/04 06:05:03;;;;;;;22.70;16.20;;;;;;;27.18;57.53;101098.36;106970;1255;75590;-81
2022/07/04 06:07:32;;;;;;;23.30;16.20;;;;;;;27.25;57.19;101101.60;107021;1255;70938;-83
2022/07/04 06:10:02;;;;;;;22.00;16.50;;;;;;;27.28;57.17;101099.61;107053;1254;71221;-83
2022/07/04 06:12:31;;;;;;;25.00;16.50;;;;;;;27.16;57.15;101097.30;107025;1254;73515;-82
2022/07/04 06:15:00;;;;;;;26.60;17.60;;;;;;;27.21;56.97;101095.15;106908;1255;59570;-84
2022/07/04 06:17:29;;;;;;;23.70;16.00;;;;;;;27.18;56.83;101094.83;107037;1254;58981;-84
2022/07/04 06:19:58;;;;;;;23.30;16.50;;;;;;;27.07;57.19;101095.14;107065;1254;62938;-81
2022/07/04 06:22:27;;;;;;;23.20;16.00;;;;;;;27.13;57.17;101093.27;107013;1254;72263;-84
2022/07/04 06:24:57;;;;;;;22.20;16.20;;;;;;;27.05;57.06;101091.98;107027;1254;71024;-84
2022/07/04 06:27:28;;;;;;;20.50;16.00;;;;;;;27.00;57.27;101090.59;107696;1254;72015;-84
2022/07/04 06:30:00;;;;;;;23.50;15.80;;;;;;;26.92;57.46;101088.70;107643;1255;60634;-84
2022/07/04 06:32:30;;;;;;;22.00;16.20;;;;;;;26.93;57.41;101090.61;107433;1254;61823;-81
2022/07/04 06:37:50;;;;;;;24.00;15.90;;;;;;;26.82;57.56;101086.88;107123;1254;72333;-79
2022/07/04 06:40:21;;;;;;;22.30;16.30;;;;;;;26.88;57.72;101085.45;107183;1253;70469;-82
2022/07/04 06:42:50;;;;;;;24.30;16.50;;;;;;;26.91;57.25;101084.25;107044;1254;74336;-83
2022/07/04 06:45:20;;;;;;;23.00;16.70;;;;;;;26.91;57.29;101084.21;106944;1257;58254;-80
2022/07/04 06:47:51;;;;;;;20.80;15.30;;;;;;;27.00;56.93;101084.31;107077;1254;60473;-82
2022/07/04 06:50:23;;;;;;;21.50;15.30;;;;;;;27.07;57.22;101083.90;106823;1255;75213;-82
2022/07/04 06:53:10;;;;;;;23.40;15.60;;;;;;;27.23;56.53;101084.69;106940;1254;62014;-82
2022/07/04 06:55:42;;;;;;;23.90;15.80;;;;;;;27.37;56.04;101080.48;107286;1254;69802;-81
2022/07/04 06:58:12;;;;;;;19.60;15.20;;;;;;;27.41;56.01;101081.91;106899;1256;64178;-79
2022/07/04 07:00:41;;;;;;;18.10;13.10;;;;;;;27.62;55.01;101081.12;107099;1253;59591;-84
2022/07/04 07:03:10;;;;;;;19.10;14.20;;;;;;;27.73;54.15;101079.34;106818;1255;57806;-82
2022/07/04 07:05:40;;;;;;;19.70;14.20;;;;;;;27.67;54.05;101079.27;106794;1257;63871;-83
2022/07/04 07:08:30;;;;;;;25.90;15.20;;;;;;;27.88;54.16;101082.06;106708;1257;72917;-84
2022/07/04 07:11:17;;;;;;;22.10;15.40;;;;;;;27.93;54.17;101078.52;106681;1256;70987;-84
2022/07/04 07:13:51;;;;;;;21.80;15.20;;;;;;;28.22;53.30;101072.73;107143;1255;74438;-81
2022/07/04 07:16:20;;;;;;;18.40;13.40;;;;;;;28.27;52.94;101069.23;107046;1255;59676;-84
2022/07/04 07:18:50;;;;;;;18.00;13.80;;;;;;;28.43;52.32;101067.47;106872;1257;59065;-82
2022/07/04 07:21:18;;;;;;;22.40;14.60;;;;;;;28.39;51.85;101063.54;107102;1256;74567;-83
2022/07/04 07:23:47;;;;;;;18.30;14.30;;;;;;;28.49;52.33;101062.14;107064;1255;72848;-82
2022/07/04 07:26:16;;;;;;;18.00;13.20;;;;;;;28.67;51.54;101061.47;107249;1257;60143;-82
2022/07/04 07:28:46;;;;;;;18.70;13.00;;;;;;;28.80;50.07;101057.38;107044;1257;74205;-84
2022/07/04 07:31:15;;;;;;;20.00;13.10;;;;;;;28.79;49.97;101053.86;106995;1257;59995;-82
2022/07/04 07:33:44;;;;;;;15.80;12.60;;;;;;;28.93;49.41;101049.92;107188;1255;59703;-82
2022/07/04 07:36:14;;;;;;;23.00;13.20;;;;;;;29.00;49.18;101054.21;106842;1258;75013;-83
2022/07/04 07:38:43;;;;;;;18.30;13.40;;;;;;;29.10;49.46;101049.96;106862;1255;71570;-82
2022/07/04 07:41:12;;;;;;;18.80;13.80;;;;;;;29.36;49.39;101051.95;106747;1257;71360;-83
2022/07/04 07:43:40;;;;;;;19.10;13.20;;;;;;;29.57;48.40;101049.79;106846;1255;74713;-84
2022/07/04 07:46:09;;;;;;;14.90;11.80;;;;;;;29.73;48.13;101048.50;106961;1255;59640;-81
2022/07/04 07:48:38;;;;;;;16.50;12.60;;;;;;;29.83;47.95;101050.87;106918;1255;59585;-82
2022/07/04 07:51:07;;;;;;;19.20;13.80;;;;;;;29.88;46.99;101053.21;106966;1255;73509;-83
2022/07/04 07:53:36;;;;;;;18.90;12.60;;;;;;;29.93;46.50;101051.60;106976;1255;72546;-82
2022/07/04 07:56:25;;;;;;;18.70;13.40;;;;;;;29.98;46.69;101049.20;106875;1255;71006;-81
2022/07/04 07:58:54;;;;;;;22.10;13.70;;;;;;;29.91;46.37;101045.56;106879;1255;63567;-82
2022/07/04 08:01:24;;;;;;;16.90;13.70;;;;;;;30.06;46.45;101043.86;106801;1255;59683;-80
2022/07/04 08:06:43;;;;;;;18.40;14.60;;;;;;;30.46;44.75;101037.94;107009;1255;63832;-85
2022/07/04 08:09:33;;;;;;;19.10;15.10;;;;;;;30.57;44.84;101034.85;106930;1256;61784;-86
2022/07/04 08:12:05;;;;;;;18.40;14.80;;;;;;;30.78;43.75;101035.71;106845;1255;71603;-83
2022/07/04 08:14:35;;;;;;;19.90;14.90;;;;;;;30.99;43.66;101036.33;106831;1255;63200;-81
2022/07/04 08:17:06;;;;;;;17.40;14.00;;;;;;;31.43;42.86;101043.61;106747;1257;61872;-85
2022/07/04 08:19:35;;;;;;;17.30;13.00;;;;;;;31.61;42.58;101046.80;107046;1255;61616;-79
2022/07/04 08:22:04;;;;;;;16.70;13.40;;;;;;;31.74;41.48;101040.34;107133;1255;75013;-83
2022/07/04 08:24:44;;;;;;;18.90;13.80;;;;;;;31.65;41.43;101044.28;107295;1255;72990;-81
2022/07/04 08:27:13;;;;;;;19.80;14.80;;;;;;;31.21;42.54;101040.82;107750;1255;69704;-83
2022/07/04 08:29:42;;;;;;;16.00;13.90;;;;;;;31.14;42.34;101034.85;107489;1255;63883;-81
2022/07/04 08:32:12;;;;;;;15.90;14.10;;;;;;;31.25;42.60;101035.35;107537;1255;60485;-83
2022/07/04 08:34:42;;;;;;;21.60;15.10;;;;;;;31.29;42.26;101040.99;107205;1255;61959;-81
2022/07/04 08:37:11;;;;;;;18.80;14.30;;;;;;;31.24;42.50;101041.91;106787;1257;63778;-84
2022/07/04 08:39:40;;;;;;;16.70;14.20;;;;;;;31.18;42.63;101039.95;106917;1255;61705;-82
2022/07/04 08:42:18;;;;;;;16.00;13.40;;;;;;;31.20;42.66;101034.53;106842;1255;70618;-84
2022/07/04 08:44:51;;;;;;;16.00;13.70;;;;;;;30.95;43.02;101029.29;106821;1256;74664;-84
2022/07/04 08:47:24;;;;;;;17.90;14.00;;;;;;;31.10;43.01;101022.94;106998;1255;61161;-80
2022/07/04 08:50:28;;;;;;;19.30;14.40;;;;;;;31.36;42.79;101024.45;106932;1255;59169;-79
2022/07/04 08:53:10;;;;;;;15.80;13.80;;;;;;;31.55;42.35;101023.67;106924;1255;63822;-77
2022/07/04 08:58:33;;;;;;;17.10;13.70;;;;;;;32.21;40.81;101016.65;106936;1255;70638;-86
2022/07/04 09:01:05;;;;;;;16.00;13.90;;;;;;;32.49;40.58;101015.37;107039;1255;65845;-87
2022/07/04 09:03:35;;;;;;;13.20;11.40;;;;;;;32.66;39.64;101016.73;107101;1255;61369;-87
2022/07/04 09:06:04;;;;;;;14.80;13.20;;;;;;;32.65;39.24;101014.66;106914;1256;59604;-83
2022/07/04 09:08:33;;;;;;;16.40;14.40;;;;;;;32.94;39.11;101012.62;106894;1257;64510;-87
2022/07/04 09:11:03;;;;;;;16.60;13.70;;;;;;;33.18;38.05;101003.23;106848;1257;61706;-84
2022/07/04 09:13:32;;;;;;;15.30;13.60;;;;;;;33.61;37.61;101005.27;106917;1257;70710;-87
2022/07/04 09:16:01;;;;;;;17.00;12.40;;;;;;;33.65;37.26;101002.00;106736;1257;64833;-82
2022/07/04 09:18:36;;;;;;;16.10;13.40;;;;;;;33.57;37.07;101001.41;107010;1257;59668;-83
2022/07/04 09:21:09;;;;;;;17.90;13.50;;;;;;;33.29;37.49;101004.10;107126;1256;61302;-88
2022/07/04 09:23:42;;;;;;;18.00;13.60;;;;;;;32.94;38.16;101004.55;107036;1256;64410;-84
2022/07/04 09:26:22;;;;;;;18.40;13.90;;;;;;;32.58;38.80;101003.32;106786;1257;61061;-84
2022/07/04 09:28:56;;;;;;;16.30;13.70;;;;;;;32.42;39.38;100999.27;106726;1257;69793;-80
2022/07/04 09:31:31;;;;;;;17.50;14.20;;;;;;;32.60;38.97;101000.06;106588;1257;63795;-82
2022/07/04 09:34:03;;;;;;;16.00;13.50;;;;;;;32.52;39.12;100996.11;106793;1256;61381;-84
2022/07/04 09:36:39;;;;;;;17.00;12.90;;;;;;;32.71;38.85;101000.52;106811;1257;59707;-83
2022/07/04 09:39:18;;;;;;;14.30;12.80;;;;;;;32.81;38.86;101000.77;106696;1257;73718;-77
2022/07/04 09:42:01;;;;;;;15.30;12.90;;;;;;;32.71;38.87;101000.37;106856;1255;62176;-79
2022/07/04 09:44:49;;;;;;;16.80;13.50;;;;;;;32.21;39.74;100992.23;106824;1257;70046;-81
2022/07/04 09:47:27;;;;;;;18.00;14.10;;;;;;;32.17;39.84;100991.42;106784;1256;72165;-84
2022/07/04 09:50:03;;;;;;;14.90;12.90;;;;;;;32.57;39.15;100986.17;106646;1258;59545;-84
2022/07/04 09:52:53;;;;;;;17.20;13.00;;;;;;;32.64;38.88;100983.55;106885;1255;60389;-82
2022/07/04 09:55:39;;;;;;;14.90;12.30;;;;;;;33.09;38.60;100978.32;106759;1257;64290;-83
2022/07/04 09:58:12;;;;;;;16.10;13.10;;;;;;;33.01;38.34;100980.41;106806;1257;73382;-84
2022/07/04 10:00:44;;;;;;;16.30;13.60;;;;;;;33.32;37.49;100982.70;106711;1257;60483;-82
2022/07/04 10:03:28;;;;;;;14.90;12.40;;;;;;;33.70;37.43;100980.27;106702;1257;64419;-81
2022/07/04 10:06:15;;;;;;;14.70;12.60;;;;;;;34.08;36.51;100975.21;106921;1254;61422;-82
2022/07/04 10:08:45;;;;;;;14.40;12.20;;;;;;;34.10;35.90;100974.23;106921;1255;59670;-84
2022/07/04 10:11:14;;;;;;;16.30;12.70;;;;;;;34.52;35.39;100973.91;106979;1254;73723;-81
2022/07/04 10:13:48;;;;;;;15.40;12.10;;;;;;;34.80;34.62;100971.88;106879;1254;63633;-80
2022/07/04 10:16:18;;;;;;;13.70;12.10;;;;;;;34.92;34.26;100970.57;106976;1254;60000;-82
2022/07/04 10:18:47;;;;;;;15.10;12.70;;;;;;;34.64;34.24;100977.45;106871;1255;72122;-83
2022/07/04 10:21:16;;;;;;;14.60;11.50;;;;;;;34.29;34.56;100975.56;106735;1254;60987;-84
2022/07/04 10:23:45;;;;;;;14.70;11.80;;;;;;;34.25;34.29;100973.59;107029;1254;60554;-82
2022/07/04 10:26:22;;;;;;;13.40;11.10;;;;;;;34.35;34.42;100968.45;106911;1254;73667;-82
2022/07/04 10:28:52;;;;;;;17.00;11.50;;;;;;;34.12;33.94;100957.66;107007;1254;72981;-81
2022/07/04 10:31:25;;;;;;;13.90;11.70;;;;;;;34.33;33.93;100964.31;106829;1255;68641;-81
2022/07/04 10:33:57;;;;;;;14.70;12.10;;;;;;;34.93;33.49;100964.29;106817;1254;62974;-83
2022/07/04 10:36:29;;;;;;;17.60;12.00;;;;;;;34.95;33.46;100960.16;107593;1254;58063;-86
2022/07/04 10:39:02;;;;;;;14.10;11.60;;;;;;;35.50;32.83;100958.61;107574;1254;61012;-84
2022/07/04 10:41:32;;;;;;;15.00;11.40;;;;;;;35.83;32.23;100953.78;107261;1254;74967;-82
2022/07/04 10:44:22;;;;;;;13.10;11.70;;;;;;;35.80;31.75;100949.83;107138;1255;73666;-85
2022/07/04 10:46:56;;;;;;;16.40;11.60;;;;;;;35.82;32.11;100946.61;107504;1254;71277;-88
2022/07/04 10:49:28;;;;;;;15.20;12.00;;;;;;;36.03;32.11;100941.80;106976;1254;74825;-89
2022/07/04 10:52:13;;;;;;;14.00;11.70;;;;;;;36.21;31.79;100942.81;107515;1255;59297;-91
2022/07/04 10:54:45;;;;;;;15.10;12.40;;;;;;;35.51;32.36;100942.25;107456;1255;60984;-87
2022/07/04 10:57:25;;;;;;;13.20;11.20;;;;;;;35.63;32.30;100940.08;107685;1254;64954;-89
2022/07/04 11:00:16;;;;;;;13.40;12.00;;;;;;;35.51;32.49;100938.77;107407;1257;62742;-89
2022/07/04 11:02:46;;;;;;;14.60;11.60;;;;;;;35.50;32.29;100935.52;107414;1255;62002;-85
2022/07/04 11:05:18;;;;;;;15.60;11.70;;;;;;;35.61;32.08;100937.16;107422;1254;73456;-83
2022/07/04 11:07:51;;;;;;;12.50;10.90;;;;;;;35.65;32.10;100932.97;107890;1254;60515;-85
2022/07/04 11:10:33;;;;;;;14.80;13.20;;;;;;;35.38;32.37;100929.09;108176;1255;58000;-84
2022/07/04 11:13:15;;;;;;;13.30;11.00;;;;;;;35.22;32.41;100921.58;107980;1254;64101;-86
2022/07/04 11:15:50;;;;;;;13.60;11.00;;;;;;;34.85;33.12;100919.42;107084;1254;62214;-82
2022/07/04 11:18:22;;;;;;;12.80;11.40;;;;;;;34.57;33.81;100922.58;107265;1254;71476;-84
2022/07/04 11:20:51;;;;;;;12.50;11.10;;;;;;;34.83;33.13;100920.17;106833;1255;74534;-85
2022/07/04 11:23:20;;;;;;;12.90;11.30;;;;;;;34.83;32.83;100914.80;107059;1255;59714;-81
2022/07/04 11:25:50;;;;;;;15.30;10.80;;;;;;;34.64;33.19;100909.05;107070;1255;60542;-82
2022/07/04 11:28:36;;;;;;;17.50;12.10;;;;;;;34.30;34.02;100910.67;107222;1255;74607;-84
2022/07/04 11:31:14;;;;;;;13.40;10.50;;;;;;;33.84;34.44;100907.39;106924;1256;72811;-79
2022/07/04 11:33:46;;;;;;;13.00;11.10;;;;;;;34.23;33.87;100902.16;107017;1254;61289;-85